createdAt,value
2023-02-24T00:03:45.126Z,4.97
2023-02-24T00:14:36.230Z,4.78
2023-02-24T00:19:57.997Z,3.78
2023-02-24T00:25:19.692Z,5.88
2023-02-24T00:30:41.611Z,4.53
2023-02-24T00:36:08.233Z,3.20
2023-02-24T00:41:32.815Z,3.60
2023-02-24T00:46:54.556Z,5.03
2023-02-24T00:52:20.824Z,4.45
2023-02-24T00:57:42.567Z,3.53
2023-02-24T01:03:04.554Z,3.65
2023-02-24T01:08:26.548Z,4.60
2023-02-24T01:13:49.089Z,3.42
2023-02-24T01:19:12.165Z,5.93
2023-02-24T01:24:37.111Z,4.57
2023-02-24T01:30:01.374Z,4.90
2023-02-24T01:35:23.062Z,4.72
2023-02-24T01:40:44.773Z,4.07
2023-02-24T01:46:06.521Z,3.95
2023-02-24T01:51:31.920Z,3.50
2023-02-24T01:56:56.271Z,7.43
2023-02-24T02:02:19.486Z,4.32
2023-02-24T02:07:42.110Z,5.05
2023-02-24T02:13:04.777Z,3.72
2023-02-24T02:18:36.500Z,3.15
2023-02-24T02:24:15.227Z,4.22
2023-02-24T02:29:51.876Z,6.30
2023-02-24T02:35:19.290Z,5.78
2023-02-24T02:40:49.380Z,3.30
2023-02-24T02:46:37.923Z,3.90
2023-02-24T02:52:14.293Z,2.70
2023-02-24T02:57:40.347Z,2.85
2023-02-24T03:03:09.724Z,3.13
2023-02-24T03:08:34.668Z,3.92
2023-02-24T03:13:58.530Z,2.50
2023-02-24T03:19:31.127Z,1.83
2023-02-24T03:24:53.072Z,2.55
2023-02-24T03:30:24.009Z,3.70
2023-02-24T03:35:45.912Z,4.63
2023-02-24T03:41:13.634Z,3.67
2023-02-24T03:46:35.776Z,2.30
2023-02-24T03:52:14.842Z,1.98
2023-02-24T03:58:01.076Z,3.15
2023-02-24T04:03:38.129Z,2.57
2023-02-24T04:09:36.344Z,2.88
2023-02-24T04:15:08.472Z,1.98
2023-02-24T04:20:33.253Z,2.00
2023-02-24T04:25:58.108Z,2.40
2023-02-24T04:31:23.212Z,2.50
2023-02-24T04:36:49.721Z,2.55
2023-02-24T04:42:11.517Z,2.28
2023-02-24T04:47:33.233Z,2.05
2023-02-24T04:52:58.055Z,1.77
2023-02-24T04:58:21.863Z,3.77
2023-02-24T05:03:43.843Z,2.35
2023-02-24T05:09:14.425Z,1.35
2023-02-24T05:14:36.253Z,3.05
2023-02-24T05:20:16.527Z,1.58
2023-02-24T05:25:38.519Z,2.28
2023-02-24T05:31:08.635Z,1.50
2023-02-24T05:36:40.663Z,1.40
2023-02-24T05:42:07.244Z,1.13
2023-02-24T05:47:29.012Z,1.25
2023-02-24T05:52:50.721Z,2.00
2023-02-24T05:58:12.617Z,1.65
2023-02-24T06:03:35.777Z,3.38
2023-02-24T06:08:58.580Z,2.33
2023-02-24T06:14:22.419Z,1.15
2023-02-24T06:19:45.300Z,1.33
2023-02-24T06:25:07.725Z,1.02
2023-02-24T06:30:29.506Z,1.27
2023-02-24T06:35:51.622Z,1.88
2023-02-24T06:41:13.545Z,1.05
2023-02-24T06:46:35.629Z,2.40
2023-02-24T06:51:57.826Z,1.80
2023-02-24T06:57:20.845Z,0.80
2023-02-24T07:02:42.624Z,4.68
2023-02-24T07:08:04.351Z,9.20
2023-02-24T07:13:30.879Z,14.55
2023-02-24T07:18:57.081Z,18.58
2023-02-24T07:24:33.333Z,11.55
2023-02-24T07:29:55.317Z,14.20
2023-02-24T07:35:17.097Z,17.10
2023-02-24T07:40:41.113Z,16.63
2023-02-24T07:46:08.148Z,6.95
2023-02-24T07:51:31.147Z,11.63
2023-02-24T07:56:59.576Z,10.07
2023-02-24T08:02:24.074Z,11.27
2023-02-24T08:07:49.977Z,13.60
2023-02-24T08:13:12.129Z,8.25
2023-02-24T08:18:37.572Z,17.73
2023-02-24T08:29:24.326Z,5.68
2023-02-24T08:34:49.673Z,7.72
2023-02-24T08:40:32.773Z,9.02
2023-02-24T08:46:06.645Z,9.93
2023-02-24T08:51:35.288Z,10.93
2023-02-24T08:56:57.184Z,10.10
2023-02-24T09:02:27.433Z,12.43
2023-02-24T09:07:54.874Z,8.40
2023-02-24T09:13:16.673Z,9.13
2023-02-24T09:18:38.608Z,7.38
2023-02-24T09:24:03.660Z,14.35
2023-02-24T09:29:35.295Z,15.23
2023-02-24T09:34:57.047Z,14.07
2023-02-24T09:40:19.173Z,15.77
2023-02-24T09:45:41.504Z,18.45
2023-02-24T09:51:05.825Z,11.95
2023-02-24T09:56:37.420Z,10.30
2023-02-24T10:02:31.368Z,9.95
2023-02-24T10:07:57.345Z,13.35
2023-02-24T10:13:30.763Z,13.88
2023-02-24T10:19:24.474Z,15.10
2023-02-24T10:24:49.602Z,12.45
2023-02-24T10:30:20.159Z,13.75
2023-02-24T10:35:43.696Z,10.88
2023-02-24T10:41:06.389Z,21.58
2023-02-24T10:46:42.161Z,8.18
2023-02-24T10:52:09.279Z,9.75
2023-02-24T10:57:42.592Z,6.45
2023-02-24T11:03:22.185Z,8.20
2023-02-24T11:09:18.177Z,10.90
2023-02-24T11:15:16.305Z,5.85
2023-02-24T11:20:52.184Z,7.00
2023-02-24T11:31:56.180Z,8.93
2023-02-24T11:37:27.198Z,5.53
2023-02-24T11:42:57.791Z,8.75
2023-02-24T11:48:36.294Z,6.13
2023-02-24T11:54:10.232Z,9.85
2023-02-24T11:59:39.946Z,12.13
2023-02-24T12:05:17.037Z,7.65
2023-02-24T12:10:47.732Z,10.07
2023-02-24T12:16:21.132Z,13.52
2023-02-24T12:21:51.132Z,9.27
2023-02-24T12:27:39.523Z,12.63
2023-02-24T12:33:08.177Z,10.35
2023-02-24T12:38:51.048Z,13.63
2023-02-24T12:44:24.697Z,16.05
2023-02-24T12:50:18.830Z,19.92
2023-02-24T12:56:13.534Z,55.83
2023-02-24T13:01:47.928Z,55.75
2023-02-24T13:07:36.703Z,56.67
2023-02-24T13:13:17.420Z,39.60
2023-02-24T13:18:41.974Z,25.33
2023-02-24T13:24:03.951Z,34.10
2023-02-24T13:29:25.707Z,25.27
2023-02-24T13:34:47.657Z,19.50
2023-02-24T13:40:17.914Z,20.60
2023-02-24T13:45:42.716Z,11.15
2023-02-24T13:51:32.641Z,18.43
2023-02-24T13:57:08.746Z,14.93
2023-02-24T14:02:31.379Z,9.40
2023-02-24T14:07:55.497Z,21.73
2023-02-24T14:13:22.568Z,8.90
2023-02-24T14:18:58.907Z,18.48
2023-02-24T14:24:21.054Z,8.00
2023-02-24T14:29:44.405Z,15.10
2023-02-24T14:35:06.921Z,7.95
2023-02-24T14:40:29.474Z,7.80
2023-02-24T14:45:53.004Z,7.85
2023-02-24T14:51:25.730Z,9.30
2023-02-24T14:56:48.100Z,9.13
2023-02-24T15:02:22.033Z,8.68
2023-02-24T15:07:45.952Z,8.50
2023-02-24T15:13:34.074Z,7.57
2023-02-24T15:19:01.029Z,8.93
2023-02-24T15:24:29.647Z,4.65
2023-02-24T15:30:03.407Z,6.38
2023-02-24T15:35:25.453Z,9.05
2023-02-24T15:41:00.509Z,6.68
2023-02-24T15:46:29.349Z,5.23
2023-02-24T15:51:54.935Z,8.23
2023-02-24T15:57:18.189Z,6.78
2023-02-24T16:02:41.432Z,7.32
2023-02-24T16:08:03.584Z,8.43
2023-02-24T16:13:27.044Z,9.18
2023-02-24T16:18:48.860Z,10.40
2023-02-24T16:24:10.702Z,9.80
2023-02-24T16:29:32.557Z,7.28
2023-02-24T16:34:54.370Z,6.65
2023-02-24T16:40:31.083Z,7.13
2023-02-24T16:45:55.588Z,10.48
2023-02-24T16:51:17.464Z,18.92
2023-02-24T16:56:39.164Z,15.23
2023-02-24T17:02:02.346Z,12.70
2023-02-24T17:07:24.299Z,36.25
2023-02-24T17:12:46.379Z,32.28
2023-02-24T17:18:08.899Z,41.10
2023-02-24T17:23:30.616Z,34.65
2023-02-24T17:28:52.305Z,36.00
2023-02-24T17:34:14.027Z,34.05
2023-02-24T17:39:35.776Z,28.73
2023-02-24T17:44:57.594Z,28.92
2023-02-24T17:50:19.642Z,29.35
2023-02-24T17:55:55.866Z,25.00
2023-02-24T18:01:21.785Z,20.25
2023-02-24T18:06:44.163Z,28.05
2023-02-24T18:12:06.212Z,17.98
2023-02-24T18:17:28.207Z,20.92
2023-02-24T18:22:50.406Z,11.40
2023-02-24T18:28:12.546Z,20.27
2023-02-24T18:33:34.507Z,16.63
2023-02-24T18:39:00.018Z,10.52
2023-02-24T18:49:43.490Z,12.82
2023-02-24T18:55:05.672Z,14.25
2023-02-24T19:00:27.578Z,9.57
2023-02-24T19:05:50.027Z,11.18
2023-02-24T19:11:15.279Z,11.02
2023-02-24T19:16:37.766Z,10.57
2023-02-24T19:22:00.509Z,10.25
2023-02-24T19:27:22.456Z,6.22
2023-02-24T19:32:44.224Z,13.20
2023-02-24T19:38:06.017Z,5.82
2023-02-24T19:43:28.104Z,4.93
2023-02-24T19:48:49.909Z,20.30
2023-02-24T19:54:12.474Z,20.65
2023-02-24T19:59:34.843Z,18.48
2023-02-24T20:04:56.708Z,20.17
2023-02-24T20:10:18.622Z,12.15
2023-02-24T20:15:40.449Z,17.67
2023-02-24T20:21:02.542Z,7.30
2023-02-24T20:26:26.475Z,12.30
2023-02-24T20:31:49.233Z,13.38
2023-02-24T20:37:11.001Z,9.60
2023-02-24T20:42:32.855Z,31.02
2023-02-24T20:47:54.663Z,19.08
2023-02-24T20:53:16.860Z,36.78
2023-02-24T20:58:39.438Z,25.35
2023-02-24T21:04:02.045Z,27.00
2023-02-24T21:09:23.813Z,30.65
2023-02-24T21:14:45.551Z,43.78
2023-02-24T21:20:11.285Z,13.05
2023-02-24T21:25:32.986Z,20.85
2023-02-24T21:30:54.802Z,9.82
2023-02-24T21:36:16.927Z,17.30
2023-02-24T21:41:38.930Z,12.90
2023-02-24T21:47:00.651Z,23.50
2023-02-24T21:52:22.432Z,6.63
2023-02-24T21:57:45.279Z,9.15
2023-02-24T22:03:08.158Z,7.00
2023-02-24T22:08:29.929Z,8.40
2023-02-24T22:13:51.673Z,6.53
2023-02-24T22:19:14.334Z,6.45
2023-02-24T22:24:36.082Z,7.38
2023-02-24T22:29:57.801Z,8.45
2023-02-24T22:35:19.716Z,6.15
2023-02-24T22:40:41.386Z,7.25
2023-02-24T22:46:06.727Z,7.75
2023-02-24T22:51:28.896Z,6.40
2023-02-24T22:56:50.608Z,6.20
2023-02-24T23:02:12.309Z,5.82
2023-02-24T23:07:34.033Z,6.80
2023-02-24T23:12:55.727Z,7.15
2023-02-24T23:18:17.702Z,5.00
2023-02-24T23:23:39.467Z,4.45
2023-02-24T23:29:01.798Z,4.22
2023-02-24T23:34:24.149Z,2.55
2023-02-24T23:39:45.833Z,2.92
2023-02-24T23:45:08.077Z,4.43
2023-02-24T23:50:29.904Z,2.63
2023-02-24T23:55:51.741Z,3.25
